sensor_id;sensor_type;location;lat;lon;timestamp;P1;durP1;ratioP1;P2;durP2;ratioP2
24439;SDS011;12618;54.386;18.394;2022-12-20T19:16:50;65.92;;;36.98;;
24439;SDS011;12618;54.386;18.394;2022-12-20T19:19:21;70.05;;;37.33;;
24439;SDS011;12618;54.386;18.394;2022-12-20T19:21:52;74.60;;;40.80;;
24439;SDS011;12618;54.386;18.394;2022-12-20T19:24:22;73.55;;;41.23;;
24439;SDS011;12618;54.386;18.394;2022-12-20T19:26:53;80.07;;;41.60;;
24439;SDS011;12618;54.386;18.394;2022-12-20T19:29:24;76.40;;;40.70;;
24439;SDS011;12618;54.386;18.394;2022-12-20T19:31:55;75.72;;;41.73;;
24439;SDS011;12618;54.386;18.394;2022-12-20T19:34:26;75.78;;;40.45;;
24439;SDS011;12618;54.386;18.394;2022-12-20T19:36:59;88.95;;;48.20;;
24439;SDS011;12618;54.386;18.394;2022-12-20T19:39:29;79.17;;;43.28;;
24439;SDS011;12618;54.386;18.394;2022-12-20T19:42:00;77.70;;;41.63;;
24439;SDS011;12618;54.386;18.394;2022-12-20T19:44:31;82.05;;;43.35;;
24439;SDS011;12618;54.386;18.394;2022-12-20T19:47:02;75.12;;;43.17;;
24439;SDS011;12618;54.386;18.394;2022-12-20T19:49:33;80.45;;;41.77;;
24439;SDS011;12618;54.386;18.394;2022-12-20T19:52:05;76.10;;;42.48;;
24439;SDS011;12618;54.386;18.394;2022-12-20T19:54:37;85.60;;;44.65;;
24439;SDS011;12618;54.386;18.394;2022-12-20T19:57:08;78.10;;;42.33;;
24439;SDS011;12618;54.386;18.394;2022-12-20T19:59:39;84.47;;;44.53;;
24439;SDS011;12618;54.386;18.394;2022-12-20T20:02:13;91.32;;;48.35;;
24439;SDS011;12618;54.386;18.394;2022-12-20T20:04:47;86.97;;;45.65;;
24439;SDS011;12618;54.386;18.394;2022-12-20T20:07:18;79.50;;;42.53;;
24439;SDS011;12618;54.386;18.394;2022-12-20T20:09:49;75.92;;;41.35;;
24439;SDS011;12618;54.386;18.394;2022-12-20T20:12:19;80.30;;;42.65;;
24439;SDS011;12618;54.386;18.394;2022-12-20T20:14:50;77.87;;;40.63;;
24439;SDS011;12618;54.386;18.394;2022-12-20T20:17:22;74.53;;;40.60;;
24439;SDS011;12618;54.386;18.394;2022-12-20T20:19:53;76.57;;;41.20;;
24439;SDS011;12618;54.386;18.394;2022-12-20T20:22:24;77.85;;;41.83;;
24439;SDS011;12618;54.386;18.394;2022-12-20T20:24:55;77.45;;;40.70;;
24439;SDS011;12618;54.386;18.394;2022-12-20T20:27:25;78.87;;;41.75;;
24439;SDS011;12618;54.386;18.394;2022-12-20T20:32:30;77.50;;;42.85;;
24439;SDS011;12618;54.386;18.394;2022-12-20T20:35:01;76.67;;;41.95;;
24439;SDS011;12618;54.386;18.394;2022-12-20T20:37:31;79.00;;;41.98;;
24439;SDS011;12618;54.386;18.394;2022-12-20T20:40:02;81.02;;;43.70;;
24439;SDS011;12618;54.386;18.394;2022-12-20T20:42:34;78.33;;;41.58;;
24439;SDS011;12618;54.386;18.394;2022-12-20T20:45:05;82.42;;;43.95;;
24439;SDS011;12618;54.386;18.394;2022-12-20T20:47:37;81.72;;;42.95;;
24439;SDS011;12618;54.386;18.394;2022-12-20T20:50:08;77.80;;;43.28;;
24439;SDS011;12618;54.386;18.394;2022-12-20T20:52:40;79.07;;;44.35;;
24439;SDS011;12618;54.386;18.394;2022-12-20T20:55:10;80.87;;;43.55;;
24439;SDS011;12618;54.386;18.394;2022-12-20T20:57:42;81.72;;;44.53;;
24439;SDS011;12618;54.386;18.394;2022-12-20T21:00:14;80.38;;;43.42;;
24439;SDS011;12618;54.386;18.394;2022-12-20T21:02:46;78.83;;;41.35;;
24439;SDS011;12618;54.386;18.394;2022-12-20T21:05:17;76.47;;;41.30;;
24439;SDS011;12618;54.386;18.394;2022-12-20T21:07:47;76.87;;;43.05;;
24439;SDS011;12618;54.386;18.394;2022-12-20T21:10:18;77.82;;;42.75;;
24439;SDS011;12618;54.386;18.394;2022-12-20T21:12:49;80.20;;;43.85;;
24439;SDS011;12618;54.386;18.394;2022-12-20T21:15:20;75.92;;;41.58;;
24439;SDS011;12618;54.386;18.394;2022-12-20T21:17:55;76.28;;;40.08;;
24439;SDS011;12618;54.386;18.394;2022-12-20T21:20:26;83.07;;;42.55;;
24439;SDS011;12618;54.386;18.394;2022-12-20T21:22:57;75.87;;;42.03;;
24439;SDS011;12618;54.386;18.394;2022-12-20T21:25:28;74.62;;;41.35;;
24439;SDS011;12618;54.386;18.394;2022-12-20T21:27:59;76.75;;;41.58;;
24439;SDS011;12618;54.386;18.394;2022-12-20T21:30:30;74.05;;;40.30;;
24439;SDS011;12618;54.386;18.394;2022-12-20T21:33:00;74.62;;;42.33;;
24439;SDS011;12618;54.386;18.394;2022-12-20T21:35:31;74.80;;;41.08;;
24439;SDS011;12618;54.386;18.394;2022-12-20T21:38:02;74.92;;;40.10;;
24439;SDS011;12618;54.386;18.394;2022-12-20T21:40:33;75.10;;;40.88;;
24439;SDS011;12618;54.386;18.394;2022-12-20T21:43:04;72.65;;;39.33;;
24439;SDS011;12618;54.386;18.394;2022-12-20T21:45:35;69.53;;;38.75;;
24439;SDS011;12618;54.386;18.394;2022-12-20T21:48:05;71.97;;;38.83;;
24439;SDS011;12618;54.386;18.394;2022-12-20T21:50:44;67.53;;;38.65;;
24439;SDS011;12618;54.386;18.394;2022-12-20T21:53:15;70.30;;;39.17;;
24439;SDS011;12618;54.386;18.394;2022-12-20T21:55:46;71.97;;;38.90;;
24439;SDS011;12618;54.386;18.394;2022-12-20T21:58:16;66.30;;;37.75;;
24439;SDS011;12618;54.386;18.394;2022-12-20T22:00:47;64.45;;;36.25;;
24439;SDS011;12618;54.386;18.394;2022-12-20T22:03:23;66.10;;;37.05;;
24439;SDS011;12618;54.386;18.394;2022-12-20T22:06:16;68.92;;;37.03;;
24439;SDS011;12618;54.386;18.394;2022-12-20T22:08:46;70.92;;;36.85;;
24439;SDS011;12618;54.386;18.394;2022-12-20T22:11:18;65.45;;;37.03;;
24439;SDS011;12618;54.386;18.394;2022-12-20T22:13:51;70.60;;;38.42;;
24439;SDS011;12618;54.386;18.394;2022-12-20T22:16:24;71.97;;;37.50;;
24439;SDS011;12618;54.386;18.394;2022-12-20T22:19:05;69.15;;;37.15;;
24439;SDS011;12618;54.386;18.394;2022-12-20T22:21:38;67.85;;;37.03;;
24439;SDS011;12618;54.386;18.394;2022-12-20T22:24:09;67.30;;;36.95;;
24439;SDS011;12618;54.386;18.394;2022-12-20T22:26:39;67.55;;;36.95;;
24439;SDS011;12618;54.386;18.394;2022-12-20T22:29:10;68.87;;;37.55;;
24439;SDS011;12618;54.386;18.394;2022-12-20T22:31:41;65.30;;;34.98;;
24439;SDS011;12618;54.386;18.394;2022-12-20T22:34:11;66.02;;;35.75;;
24439;SDS011;12618;54.386;18.394;2022-12-20T22:36:42;67.25;;;35.68;;
24439;SDS011;12618;54.386;18.394;2022-12-20T22:39:13;66.80;;;36.60;;
24439;SDS011;12618;54.386;18.394;2022-12-20T22:41:44;65.00;;;35.90;;
24439;SDS011;12618;54.386;18.394;2022-12-20T22:44:15;62.90;;;34.50;;
24439;SDS011;12618;54.386;18.394;2022-12-20T22:46:46;66.77;;;35.25;;
24439;SDS011;12618;54.386;18.394;2022-12-20T22:49:17;63.85;;;35.28;;
24439;SDS011;12618;54.386;18.394;2022-12-20T22:51:48;65.87;;;35.83;;
24439;SDS011;12618;54.386;18.394;2022-12-20T22:54:19;61.40;;;35.33;;
24439;SDS011;12618;54.386;18.394;2022-12-20T22:56:50;62.98;;;35.73;;
24439;SDS011;12618;54.386;18.394;2022-12-20T22:59:20;63.33;;;36.00;;
24439;SDS011;12618;54.386;18.394;2022-12-20T23:01:51;64.87;;;35.70;;
24439;SDS011;12618;54.386;18.394;2022-12-20T23:04:22;65.05;;;36.50;;
24439;SDS011;12618;54.386;18.394;2022-12-20T23:06:52;66.57;;;35.65;;
24439;SDS011;12618;54.386;18.394;2022-12-20T23:09:23;65.32;;;34.80;;
24439;SDS011;12618;54.386;18.394;2022-12-20T23:11:55;65.95;;;35.45;;
24439;SDS011;12618;54.386;18.394;2022-12-20T23:14:44;61.30;;;34.27;;
24439;SDS011;12618;54.386;18.394;2022-12-20T23:17:34;63.78;;;35.88;;
24439;SDS011;12618;54.386;18.394;2022-12-20T23:20:05;65.35;;;34.95;;
24439;SDS011;12618;54.386;18.394;2022-12-20T23:22:55;65.87;;;34.75;;
24439;SDS011;12618;54.386;18.394;2022-12-20T23:25:26;63.00;;;34.90;;
24439;SDS011;12618;54.386;18.394;2022-12-20T23:27:56;62.23;;;34.95;;
24439;SDS011;12618;54.386;18.394;2022-12-20T23:30:27;64.97;;;34.33;;
24439;SDS011;12618;54.386;18.394;2022-12-20T23:32:58;65.10;;;35.08;;
24439;SDS011;12618;54.386;18.394;2022-12-20T23:35:28;59.77;;;33.78;;
24439;SDS011;12618;54.386;18.394;2022-12-20T23:37:59;65.42;;;34.63;;
24439;SDS011;12618;54.386;18.394;2022-12-20T23:40:29;62.35;;;34.13;;
24439;SDS011;12618;54.386;18.394;2022-12-20T23:43:00;63.05;;;34.27;;
24439;SDS011;12618;54.386;18.394;2022-12-20T23:45:31;65.67;;;35.63;;
24439;SDS011;12618;54.386;18.394;2022-12-20T23:48:02;64.37;;;34.20;;
24439;SDS011;12618;54.386;18.394;2022-12-20T23:50:35;57.08;;;33.13;;
24439;SDS011;12618;54.386;18.394;2022-12-20T23:53:05;62.33;;;34.67;;
24439;SDS011;12618;54.386;18.394;2022-12-20T23:55:36;59.63;;;33.60;;
24439;SDS011;12618;54.386;18.394;2022-12-20T23:58:07;66.33;;;34.67;;
